Time;durP1;ratioP1;P1;durP2;ratioP2;P2;SDS_P1;SDS_P2;PMS_P1;PMS_P2;Temp;Humidity;BMP_temperature;BMP_pressure;BME280_temperature;BME280_humidity;BME280_pressure;Samples;Min_cycle;Max_cycle;Signal;HPM_P1;HPM_P2
2021/05/01 00:04:20;;;;;;;9.88;8.20;;;;;;;-146.18;100.00;67994.34;9984097;29;20398;-67
2021/05/01 00:09:16;;;;;;;11.90;9.25;;;;;;;-146.18;100.00;67994.34;9986394;29;20048;-66
2021/05/01 00:14:12;;;;;;;12.10;8.73;;;;;;;-146.18;100.00;67994.34;9990049;29;20048;-69
2021/05/01 00:19:08;;;;;;;9.82;7.85;;;;;;;-146.18;100.00;67994.34;9987333;29;20051;-68
2021/05/01 00:24:05;;;;;;;10.68;8.27;;;;;;;-146.18;100.00;67994.34;9980313;29;20071;-68
2021/05/01 00:29:01;;;;;;;11.85;9.73;;;;;;;-146.18;100.00;67994.34;9984150;29;20055;-68
2021/05/01 00:33:57;;;;;;;19.13;12.00;;;;;;;-146.18;100.00;67994.34;9986298;29;20491;-68
2021/05/01 00:38:54;;;;;;;18.13;12.48;;;;;;;-146.18;100.00;67994.34;9994346;29;20060;-68
2021/05/01 00:43:50;;;;;;;15.18;12.02;;;;;;;-146.18;100.00;67994.34;9990630;29;20088;-68
2021/05/01 00:48:47;;;;;;;14.48;11.20;;;;;;;-146.18;100.00;67994.34;9988350;29;20104;-69
2021/05/01 00:53:42;;;;;;;15.45;10.68;;;;;;;-146.18;100.00;67994.34;9985381;29;20582;-69
2021/05/01 00:58:39;;;;;;;13.30;8.63;;;;;;;-146.18;100.00;67994.34;9993912;29;20052;-69
2021/05/01 01:03:38;;;;;;;10.05;8.02;;;;;;;-146.18;100.00;67994.34;9987561;29;20078;-71
2021/05/01 01:08:35;;;;;;;14.15;9.30;;;;;;;-146.18;100.00;67994.34;9970032;29;20045;-70
2021/05/01 01:13:31;;;;;;;13.43;9.32;;;;;;;-146.18;100.00;67994.34;9980819;29;20586;-70
2021/05/01 01:18:27;;;;;;;9.98;7.93;;;;;;;-146.18;100.00;67994.34;9988171;29;20095;-68
2021/05/01 01:23:23;;;;;;;9.70;7.65;;;;;;;-146.18;100.00;67994.34;9986832;29;20468;-67
2021/05/01 01:28:19;;;;;;;10.25;7.60;;;;;;;-146.18;100.00;67994.34;9986820;29;20131;-68
2021/05/01 01:33:15;;;;;;;10.25;7.18;;;;;;;-146.18;100.00;67994.34;9993368;29;20574;-68
2021/05/01 01:38:11;;;;;;;10.48;8.20;;;;;;;-146.18;100.00;67994.34;9987002;29;20083;-69
2021/05/01 01:43:08;;;;;;;13.57;8.02;;;;;;;-146.18;100.00;67994.34;9991871;29;20144;-67
2021/05/01 01:48:05;;;;;;;13.45;8.52;;;;;;;-146.18;100.00;67994.34;9986340;29;20626;-68
2021/05/01 01:53:00;;;;;;;11.35;8.50;;;;;;;-146.18;100.00;67994.34;9988795;29;20079;-68
2021/05/01 01:57:57;;;;;;;10.82;8.45;;;;;;;-146.18;100.00;67994.34;9990976;29;20056;-69
2021/05/01 02:02:54;;;;;;;9.73;7.25;;;;;;;-146.18;100.00;67994.34;9989544;29;20522;-68
2021/05/01 02:07:50;;;;;;;11.13;7.43;;;;;;;-146.18;100.00;67994.34;9989097;29;20403;-68
2021/05/01 02:12:46;;;;;;;10.38;7.78;;;;;;;-146.18;100.00;67994.34;9990179;29;20047;-69
2021/05/01 02:17:46;;;;;;;10.43;7.25;;;;;;;-146.18;100.00;67994.34;9983466;29;20861;-69
2021/05/01 02:22:43;;;;;;;12.40;8.25;;;;;;;-146.18;100.00;67994.34;9987652;29;20546;-69
2021/05/01 02:27:40;;;;;;;11.32;8.10;;;;;;;-146.18;100.00;67994.34;9982265;29;20439;-68
2021/05/01 02:32:36;;;;;;;10.68;8.02;;;;;;;-146.18;100.00;67994.34;9988806;29;20629;-69
2021/05/01 02:37:33;;;;;;;9.98;8.32;;;;;;;-146.18;100.00;67994.34;9978967;29;20608;-68
2021/05/01 02:42:29;;;;;;;11.43;8.43;;;;;;;-146.18;100.00;67994.34;9979134;29;20096;-69
2021/05/01 02:47:25;;;;;;;12.63;8.10;;;;;;;-146.18;100.00;67994.34;9979741;29;20041;-69
2021/05/01 02:52:22;;;;;;;11.43;8.73;;;;;;;-146.18;100.00;67994.34;9980228;29;20180;-68
2021/05/01 02:57:18;;;;;;;13.10;9.18;;;;;;;-146.18;100.00;67994.34;9990912;29;20052;-73
2021/05/01 03:02:14;;;;;;;13.10;8.98;;;;;;;-146.18;100.00;67994.34;9989744;29;20511;-68
2021/05/01 03:07:10;;;;;;;12.63;8.95;;;;;;;-146.18;100.00;67994.34;9984528;29;20099;-68
2021/05/01 03:12:08;;;;;;;12.52;9.30;;;;;;;-146.18;100.00;67994.34;9987694;29;20139;-70
2021/05/01 03:17:04;;;;;;;12.35;8.13;;;;;;;-146.18;100.00;67994.34;9976320;29;20048;-70
2021/05/01 03:22:00;;;;;;;11.90;8.13;;;;;;;-146.18;100.00;67994.34;9982137;29;20051;-69
2021/05/01 03:26:56;;;;;;;14.40;9.90;;;;;;;-146.18;100.00;67994.34;9981908;29;20048;-69
2021/05/01 03:31:52;;;;;;;14.73;8.90;;;;;;;-146.18;100.00;67994.34;9986785;29;20059;-69
2021/05/01 03:36:49;;;;;;;13.40;9.00;;;;;;;-146.18;100.00;67994.34;9985862;29;20534;-70
2021/05/01 03:41:45;;;;;;;12.43;9.25;;;;;;;-146.18;100.00;67994.34;9988780;29;20048;-70
2021/05/01 03:46:41;;;;;;;13.35;9.65;;;;;;;-146.18;100.00;67994.34;9962284;29;20044;-70
2021/05/01 03:51:37;;;;;;;14.60;9.35;;;;;;;-146.18;100.00;67994.34;9981409;29;20088;-70
2021/05/01 03:56:35;;;;;;;12.65;9.00;;;;;;;-146.18;100.00;67994.34;9986118;29;20387;-69
2021/05/01 04:01:30;;;;;;;14.15;10.07;;;;;;;-146.18;100.00;67994.34;9981885;29;20048;-69
2021/05/01 04:06:26;;;;;;;16.23;10.68;;;;;;;-146.18;100.00;67994.34;9994564;29;20044;-67
2021/05/01 04:11:22;;;;;;;15.27;9.18;;;;;;;-146.18;100.00;67994.34;9985681;29;20653;-67
2021/05/01 04:16:18;;;;;;;15.98;9.98;;;;;;;-146.18;100.00;67994.34;9982643;29;20055;-67
2021/05/01 04:21:16;;;;;;;13.18;9.20;;;;;;;-146.18;100.00;67994.34;9986248;29;20044;-68
2021/05/01 04:26:12;;;;;;;14.65;10.48;;;;;;;-146.18;100.00;67994.34;9986541;29;20048;-68
2021/05/01 04:31:08;;;;;;;15.38;8.90;;;;;;;-146.18;100.00;67994.34;9992536;29;20099;-68
2021/05/01 04:36:04;;;;;;;15.75;9.40;;;;;;;-146.18;100.00;67994.34;9993992;29;20062;-65
2021/05/01 04:41:00;;;;;;;14.70;9.10;;;;;;;-146.18;100.00;67994.34;9977598;29;20064;-68
2021/05/01 04:45:58;;;;;;;16.70;9.80;;;;;;;-146.18;100.00;67994.34;9976806;29;20095;-68
2021/05/01 04:50:54;;;;;;;13.00;8.50;;;;;;;-146.18;100.00;67994.34;9987932;29;20108;-67
2021/05/01 04:55:50;;;;;;;13.77;9.13;;;;;;;-146.18;100.00;67994.34;9985275;29;20052;-68
2021/05/01 05:00:46;;;;;;;11.57;7.90;;;;;;;-146.18;100.00;67994.34;9983851;29;20091;-69
2021/05/01 05:05:42;;;;;;;13.30;8.30;;;;;;;-146.18;100.00;67994.34;9987210;29;20142;-69
2021/05/01 05:10:38;;;;;;;10.68;7.38;;;;;;;-146.18;100.00;67994.34;9984277;29;20055;-68
2021/05/01 05:15:34;;;;;;;13.27;7.90;;;;;;;-146.18;100.00;67994.34;9987432;29;20056;-69
2021/05/01 05:20:30;;;;;;;10.65;7.18;;;;;;;-146.18;100.00;67994.34;9987585;29;20048;-68
2021/05/01 05:25:26;;;;;;;11.85;7.18;;;;;;;-146.18;100.00;67994.34;9980978;29;20563;-68
2021/05/01 05:30:23;;;;;;;9.75;6.93;;;;;;;-146.18;100.00;67994.34;9984872;29;20052;-67
2021/05/01 05:35:19;;;;;;;9.38;7.03;;;;;;;-146.18;100.00;67994.34;9991511;29;20044;-68
2021/05/01 05:40:15;;;;;;;10.32;6.95;;;;;;;-146.18;100.00;67994.34;9983306;29;20060;-67
2021/05/01 05:45:12;;;;;;;11.43;6.85;;;;;;;-146.18;100.00;67994.34;9986182;29;20084;-67
2021/05/01 05:50:09;;;;;;;10.95;6.43;;;;;;;-146.18;100.00;67994.34;9987402;29;20084;-68
2021/05/01 05:55:05;;;;;;;9.38;5.97;;;;;;;-146.18;100.00;67994.34;9985796;29;20048;-68
2021/05/01 06:00:04;;;;;;;10.48;6.28;;;;;;;-146.18;100.00;67994.34;9985994;29;20863;-67
2021/05/01 06:05:07;;;;;;;8.48;6.15;;;;;;;-146.18;100.00;67994.34;9989023;29;20611;-68
2021/05/01 06:10:05;;;;;;;12.13;6.55;;;;;;;-146.18;100.00;67994.34;9988500;29;20135;-71
2021/05/01 06:15:07;;;;;;;9.63;6.82;;;;;;;-146.18;100.00;67994.34;9986962;29;20164;-68
2021/05/01 06:20:05;;;;;;;11.95;6.63;;;;;;;-146.18;100.00;67994.34;9986500;29;20463;-68
2021/05/01 06:25:04;;;;;;;9.73;5.55;;;;;;;-146.18;100.00;67994.34;9972694;29;20060;-67
2021/05/01 06:30:02;;;;;;;9.85;6.28;;;;;;;-146.18;100.00;67994.34;9977920;29;20127;-66
2021/05/01 06:35:00;;;;;;;8.93;6.95;;;;;;;-146.18;100.00;67994.34;9987262;29;20040;-67
2021/05/01 06:40:02;;;;;;;11.60;6.82;;;;;;;-146.18;100.00;67994.34;9980805;29;20052;-67
2021/05/01 06:45:03;;;;;;;10.07;6.70;;;;;;;-146.18;100.00;67994.34;9980985;29;20088;-65
2021/05/01 06:50:11;;;;;;;10.88;7.03;;;;;;;-146.18;100.00;67994.34;9985155;29;20060;-67
2021/05/01 06:55:08;;;;;;;11.73;6.70;;;;;;;-146.18;100.00;67994.34;9979223;29;20452;-68
2021/05/01 07:00:09;;;;;;;11.35;7.05;;;;;;;-146.18;100.00;67994.34;9981770;29;20091;-68
2021/05/01 07:05:05;;;;;;;10.57;6.78;;;;;;;-146.18;100.00;67994.34;9978541;29;20465;-66
2021/05/01 07:10:09;;;;;;;9.48;6.18;;;;;;;-146.18;100.00;67994.34;9977302;29;20072;-67
2021/05/01 07:15:09;;;;;;;;;;;;;;;-146.18;100.00;67994.34;9983714;29;20554;-67
2021/05/01 07:20:09;;;;;;;10.40;6.07;;;;;;;-146.18;100.00;67994.34;9984246;29;20374;-67
2021/05/01 07:25:07;;;;;;;9.48;6.07;;;;;;;-146.18;100.00;67994.34;9981413;29;20052;-67
2021/05/01 07:30:05;;;;;;;10.48;6.43;;;;;;;-146.18;100.00;67994.34;9980489;29;20116;-68
2021/05/01 07:35:05;;;;;;;11.88;6.55;;;;;;;-146.18;100.00;67994.34;9979041;29;20136;-66
2021/05/01 07:40:05;;;;;;;9.95;6.50;;;;;;;-146.18;100.00;67994.34;9980789;29;20072;-68
2021/05/01 07:45:02;;;;;;;9.35;6.82;;;;;;;-146.18;100.00;67994.34;9973528;29;20128;-67
2021/05/01 07:49:58;;;;;;;10.45;6.45;;;;;;;-146.18;100.00;67994.34;9988040;29;20129;-65
2021/05/01 07:54:54;;;;;;;11.48;6.05;;;;;;;-146.18;100.00;67994.34;9984366;29;20087;-65
2021/05/01 07:59:51;;;;;;;9.85;6.65;;;;;;;-146.18;100.00;67994.34;9985288;29;20052;-66
2021/05/01 08:04:48;;;;;;;11.63;7.22;;;;;;;-146.18;100.00;67994.34;9987023;29;20047;-65
2021/05/01 08:09:44;;;;;;;10.10;6.07;;;;;;;-146.18;100.00;67994.34;9983342;29;20080;-66
2021/05/01 08:14:39;;;;;;;9.73;6.65;;;;;;;-146.18;100.00;67994.34;9980208;29;20059;-67
2021/05/01 08:19:35;;;;;;;9.70;6.45;;;;;;;-146.18;100.00;67994.34;9984924;29;20084;-67
2021/05/01 08:24:32;;;;;;;10.02;6.78;;;;;;;-146.18;100.00;67994.34;9988882;29;20067;-68
2021/05/01 08:29:28;;;;;;;9.90;5.60;;;;;;;-146.18;100.00;67994.34;9980687;29;20051;-67
2021/05/01 08:34:24;;;;;;;9.73;6.07;;;;;;;-146.18;100.00;67994.34;9980424;29;20044;-67
2021/05/01 08:39:20;;;;;;;9.40;6.20;;;;;;;-146.18;100.00;67994.34;9987296;29;20058;-66
2021/05/01 08:44:16;;;;;;;10.20;6.38;;;;;;;-146.18;100.00;67994.34;9982711;29;20131;-66
2021/05/01 08:49:12;;;;;;;8.55;6.05;;;;;;;-146.18;100.00;67994.34;9982435;29;20051;-66
2021/05/01 08:54:12;;;;;;;9.65;6.22;;;;;;;-146.18;100.00;67994.34;9984841;29;20048;-67
2021/05/01 08:59:09;;;;;;;12.05;6.82;;;;;;;-146.18;100.00;67994.34;9985547;29;20088;-66
2021/05/01 09:04:07;;;;;;;10.40;6.47;;;;;;;-146.18;100.00;67994.34;9981866;29;20049;-66
2021/05/01 09:09:08;;;;;;;10.52;6.10;;;;;;;-146.18;100.00;67994.34;9989569;29;20103;-66
2021/05/01 09:14:17;;;;;;;9.15;5.53;;;;;;;-146.18;100.00;67994.34;9989426;29;20443;-66
2021/05/01 09:19:30;;;;;;;10.35;6.32;;;;;;;-146.18;100.00;67994.34;9979475;29;20048;-66
2021/05/01 09:24:27;;;;;;;9.43;6.20;;;;;;;-146.18;100.00;67994.34;9980083;29;20056;-69
2021/05/01 09:29:35;;;;;;;10.25;6.22;;;;;;;-146.18;100.00;67994.34;9986038;29;20064;-67
2021/05/01 09:34:34;;;;;;;11.38;6.20;;;;;;;-146.18;100.00;67994.34;9982125;29;20053;-70
2021/05/01 09:39:30;;;;;;;9.77;5.63;;;;;;;-146.18;100.00;67994.34;9981679;29;20056;-67
2021/05/01 09:44:26;;;;;;;12.15;6.55;;;;;;;-146.18;100.00;67994.34;9970739;29;20108;-68
2021/05/01 09:49:28;;;;;;;8.73;6.22;;;;;;;-146.18;100.00;67994.34;9980355;29;20058;-70
2021/05/01 09:54:28;;;;;;;8.07;5.53;;;;;;;-146.18;100.00;67994.34;9980245;29;20072;-66
2021/05/01 09:59:34;;;;;;;8.23;5.05;;;;;;;-146.18;100.00;67994.34;9977563;29;20044;-66
2021/05/01 10:04:31;;;;;;;10.00;5.30;;;;;;;-146.18;100.00;67994.34;9975221;29;20088;-67
2021/05/01 10:09:32;;;;;;;13.38;5.32;;;;;;;-146.18;100.00;67994.34;9979507;29;20047;-67
2021/05/01 10:14:37;;;;;;;7.18;5.00;;;;;;;-146.18;100.00;67994.34;9967367;29;20052;-66
2021/05/01 10:19:55;;;;;;;7.45;4.60;;;;;;;-146.18;100.00;67994.34;9982874;29;20475;-68
2021/05/01 10:24:55;;;;;;;13.23;6.07;;;;;;;-146.18;100.00;67994.34;9979761;29;20055;-68
2021/05/01 10:30:16;;;;;;;7.40;4.80;;;;;;;-146.18;100.00;67994.34;9979637;29;20052;-66
2021/05/01 10:35:13;;;;;;;5.78;4.57;;;;;;;-146.18;100.00;67994.34;9981190;29;20412;-68
2021/05/01 10:40:09;;;;;;;7.75;5.35;;;;;;;-146.18;100.00;67994.34;9980796;29;20052;-68
2021/05/01 10:45:06;;;;;;;6.93;4.90;;;;;;;-146.18;100.00;67994.34;9983166;29;20479;-68
2021/05/01 10:50:20;;;;;;;8.50;4.50;;;;;;;-146.18;100.00;67994.34;9984640;29;20518;-70
2021/05/01 10:55:16;;;;;;;7.57;5.18;;;;;;;-146.18;100.00;67994.34;9982434;29;20134;-70
2021/05/01 11:00:13;;;;;;;7.32;4.63;;;;;;;-146.18;100.00;67994.34;9982038;29;20056;-69
2021/05/01 11:05:13;;;;;;;6.78;4.13;;;;;;;-146.18;100.00;67994.34;9982089;29;20083;-69
2021/05/01 11:10:15;;;;;;;8.15;5.32;;;;;;;-146.18;100.00;67994.34;9979387;29;20096;-70
2021/05/01 11:15:12;;;;;;;6.85;4.53;;;;;;;-146.18;100.00;67994.34;9973349;29;20044;-68
2021/05/01 11:20:16;;;;;;;5.95;4.32;;;;;;;-146.18;100.00;67994.34;9981129;29;20642;-67
2021/05/01 11:25:15;;;;;;;8.43;4.75;;;;;;;-146.18;100.00;67994.34;9972311;29;20052;-68
2021/05/01 11:30:14;;;;;;;8.80;4.85;;;;;;;-146.18;100.00;67994.34;9988744;29;20056;-66
2021/05/01 11:35:13;;;;;;;7.38;5.05;;;;;;;-146.18;100.00;67994.34;9979232;29;20103;-66
2021/05/01 11:40:11;;;;;;;8.57;5.50;;;;;;;-146.18;100.00;67994.34;9977265;29;20189;-66
2021/05/01 11:45:17;;;;;;;7.65;4.03;;;;;;;-146.18;100.00;67994.34;9981247;29;20087;-69
2021/05/01 11:50:14;;;;;;;7.28;4.70;;;;;;;-146.18;100.00;67994.34;9976048;29;20626;-69
2021/05/01 11:55:13;;;;;;;7.75;4.68;;;;;;;-146.18;100.00;67994.34;9982758;29;20057;-70
2021/05/01 12:00:10;;;;;;;7.63;5.20;;;;;;;-146.18;100.00;67994.34;9982820;29;20570;-70
2021/05/01 12:05:18;;;;;;;9.40;4.72;;;;;;;-146.18;100.00;67994.34;9978514;29;20119;-69
2021/05/01 12:10:16;;;;;;;8.98;5.90;;;;;;;-146.18;100.00;67994.34;9984772;29;20052;-69
2021/05/01 12:15:15;;;;;;;7.20;4.90;;;;;;;-146.18;100.00;67994.34;9967966;29;20053;-69
2021/05/01 12:20:12;;;;;;;21.67;6.85;;;;;;;-146.18;100.00;67994.34;9982132;29;20632;-69
2021/05/01 12:25:34;;;;;;;8.43;5.35;;;;;;;-146.18;100.00;67994.34;9979839;29;20060;-70
2021/05/01 12:30:39;;;;;;;8.80;5.05;;;;;;;-146.18;100.00;67994.34;9969052;29;20123;-70
2021/05/01 12:35:36;;;;;;;9.10;4.75;;;;;;;-146.18;100.00;67994.34;9985672;29;20052;-65
2021/05/01 12:40:32;;;;;;;8.50;6.10;;;;;;;-146.18;100.00;67994.34;9985954;29;20647;-70
2021/05/01 12:45:32;;;;;;;10.95;6.78;;;;;;;-146.18;100.00;67994.34;9992269;29;20071;-68
2021/05/01 12:50:29;;;;;;;11.02;7.85;;;;;;;-146.18;100.00;67994.34;9985099;29;20107;-67
2021/05/01 12:55:25;;;;;;;11.77;8.93;;;;;;;-146.18;100.00;67994.34;9980228;29;20061;-68
2021/05/01 13:00:25;;;;;;;11.73;8.88;;;;;;;-146.18;100.00;67994.34;9983255;29;20048;-66
2021/05/01 13:05:25;;;;;;;11.18;9.02;;;;;;;-146.18;100.00;67994.34;9983181;29;20060;-66
2021/05/01 13:10:22;;;;;;;10.93;8.70;;;;;;;-146.18;100.00;67994.34;9980632;29;20064;-67
2021/05/01 13:15:18;;;;;;;11.95;8.45;;;;;;;-146.18;100.00;67994.34;9990487;29;20099;-65
2021/05/01 13:20:16;;;;;;;10.00;7.82;;;;;;;-146.18;100.00;67994.34;9975207;29;20048;-68
2021/05/01 13:25:18;;;;;;;10.18;7.65;;;;;;;-146.18;100.00;67994.34;9965390;29;20095;-69
2021/05/01 13:30:18;;;;;;;10.20;7.65;;;;;;;-146.18;100.00;67994.34;9984888;29;20794;-66
2021/05/01 13:35:17;;;;;;;8.73;6.93;;;;;;;-146.18;100.00;67994.34;9979939;29;20071;-67
2021/05/01 13:40:27;;;;;;;10.80;8.80;;;;;;;-146.18;100.00;67994.34;9975582;29;20048;-66
2021/05/01 13:45:23;;;;;;;13.55;10.05;;;;;;;-146.18;100.00;67994.34;9978083;29;20072;-68
2021/05/01 13:50:23;;;;;;;14.65;11.30;;;;;;;-146.18;100.00;67994.34;9979737;29;20045;-66
2021/05/01 13:55:24;;;;;;;12.30;9.77;;;;;;;-146.18;100.00;67994.34;9989254;29;20080;-69
2021/05/01 14:00:23;;;;;;;15.35;9.93;;;;;;;-146.18;100.00;67994.34;9986971;29;20406;-68
2021/05/01 14:05:24;;;;;;;15.85;12.15;;;;;;;-146.18;100.00;67994.34;9987377;29;20056;-67
2021/05/01 14:10:24;;;;;;;17.40;13.38;;;;;;;-146.18;100.00;67994.34;9970207;29;20625;-68
2021/05/01 14:15:23;;;;;;;16.60;12.55;;;;;;;-146.18;100.00;67994.34;9969886;29;20048;-67
2021/05/01 14:20:19;;;;;;;15.30;11.57;;;;;;;-146.18;100.00;67994.34;9976272;29;20052;-68
2021/05/01 14:25:16;;;;;;;18.55;14.07;;;;;;;-146.18;100.00;67994.34;9982463;29;20128;-70
2021/05/01 14:35:45;;;;;;;13.57;10.30;;;;;;;-146.18;100.00;67994.34;9976202;29;20048;-70
2021/05/01 14:40:42;;;;;;;12.30;9.25;;;;;;;-146.18;100.00;67994.34;9972043;29;20467;-69
2021/05/01 14:45:38;;;;;;;11.52;9.13;;;;;;;-146.18;100.00;67994.34;9975753;29;20060;-68
2021/05/01 14:50:34;;;;;;;11.63;9.10;;;;;;;-146.18;100.00;67994.34;9982607;29;20104;-71
2021/05/01 14:55:30;;;;;;;12.88;9.57;;;;;;;-146.18;100.00;67994.34;9978944;29;20051;-69
2021/05/01 15:00:26;;;;;;;12.57;9.55;;;;;;;-146.18;100.00;67994.34;9982990;29;20052;-69
2021/05/01 15:05:25;;;;;;;12.02;9.27;;;;;;;-146.18;100.00;67994.34;9980294;29;20557;-70
2021/05/01 15:10:20;;;;;;;12.48;9.60;;;;;;;-146.18;100.00;67994.34;9983702;29;20115;-71
2021/05/01 15:15:17;;;;;;;11.05;8.65;;;;;;;-146.18;100.00;67994.34;9981956;29;20076;-71
2021/05/01 15:20:16;;;;;;;13.60;8.63;;;;;;;-146.18;100.00;67994.34;9985225;29;20060;-69
2021/05/01 15:25:12;;;;;;;13.55;11.10;;;;;;;-146.18;100.00;67994.34;9986535;29;20111;-69
2021/05/01 15:30:23;;;;;;;12.48;9.77;;;;;;;-146.18;100.00;67994.34;9982981;29;20534;-69
2021/05/01 15:35:21;;;;;;;13.45;10.38;;;;;;;-146.18;100.00;67994.34;9981461;29;20052;-69
2021/05/01 15:40:17;;;;;;;17.15;11.73;;;;;;;-146.18;100.00;67994.34;9982961;29;20107;-68
2021/05/01 15:45:15;;;;;;;13.27;10.93;;;;;;;-146.18;100.00;67994.34;9976367;29;20104;-70
2021/05/01 15:50:14;;;;;;;11.95;9.15;;;;;;;-146.18;100.00;67994.34;9985675;29;20055;-70
2021/05/01 15:55:12;;;;;;;12.18;7.93;;;;;;;-146.18;100.00;67994.34;9979583;29;20165;-70
2021/05/01 16:00:15;;;;;;;8.90;6.90;;;;;;;-146.18;100.00;67994.34;9985717;29;20115;-67
2021/05/01 16:05:13;;;;;;;7.10;5.65;;;;;;;-146.18;100.00;67994.34;9978313;29;20646;-69
2021/05/01 16:10:11;;;;;;;8.50;6.45;;;;;;;-146.18;100.00;67994.34;9995770;29;20507;-68
2021/05/01 16:15:09;;;;;;;8.55;6.05;;;;;;;-146.18;100.00;67994.34;9985666;29;20080;-70
2021/05/01 16:20:07;;;;;;;8.50;6.43;;;;;;;-146.18;100.00;67994.34;9983845;29;20087;-69
2021/05/01 16:25:05;;;;;;;8.07;6.07;;;;;;;-146.18;100.00;67994.34;9989925;29;20392;-69
2021/05/01 16:30:02;;;;;;;10.98;7.07;;;;;;;-146.18;100.00;67994.34;9983242;29;20082;-67
2021/05/01 16:34:58;;;;;;;10.10;6.63;;;;;;;-146.18;100.00;67994.34;9990868;29;20056;-65
2021/05/01 16:39:55;;;;;;;7.78;6.07;;;;;;;-146.18;100.00;67994.34;9981136;29;20044;-65
2021/05/01 16:44:51;;;;;;;7.18;5.20;;;;;;;-146.18;100.00;67994.34;9980882;29;20645;-67
2021/05/01 16:49:47;;;;;;;8.35;4.75;;;;;;;-146.18;100.00;67994.34;9987087;29;20052;-67
2021/05/01 16:54:44;;;;;;;5.47;3.78;;;;;;;-146.18;100.00;67994.34;9989194;29;20060;-69
2021/05/01 16:59:40;;;;;;;7.95;5.40;;;;;;;-146.18;100.00;67994.34;9978121;29;20048;-67
2021/05/01 17:04:36;;;;;;;20.90;13.70;;;;;;;-146.18;100.00;67994.34;9979353;29;20458;-69
2021/05/01 17:09:32;;;;;;;18.27;13.50;;;;;;;-146.18;100.00;67994.34;9978365;29;20041;-66
2021/05/01 17:14:28;;;;;;;106.40;83.50;;;;;;;-146.18;100.00;67994.34;9977679;29;20063;-67
2021/05/01 17:19:24;;;;;;;16.13;13.30;;;;;;;-146.18;100.00;67994.34;9979141;29;20050;-67
2021/05/01 17:24:20;;;;;;;18.45;13.35;;;;;;;-146.18;100.00;67994.34;9979382;29;20048;-68
2021/05/01 17:29:16;;;;;;;16.60;12.75;;;;;;;-146.18;100.00;67994.34;9986872;29;20112;-69
2021/05/01 17:34:12;;;;;;;15.07;12.35;;;;;;;-146.18;100.00;67994.34;9974886;29;20550;-68
2021/05/01 17:39:08;;;;;;;18.88;14.95;;;;;;;-146.18;100.00;67994.34;9986121;29;20141;-69
2021/05/01 17:44:04;;;;;;;20.92;16.38;;;;;;;-146.18;100.00;67994.34;9985069;29;20055;-70
2021/05/01 17:49:00;;;;;;;20.42;16.35;;;;;;;-146.18;100.00;67994.34;9986068;29;20768;-66
2021/05/01 17:53:56;;;;;;;24.35;17.83;;;;;;;-146.18;100.00;67994.34;9975768;29;20459;-67
2021/05/01 17:58:54;;;;;;;25.00;18.17;;;;;;;-146.18;100.00;67994.34;9973673;29;20088;-65
2021/05/01 18:03:50;;;;;;;24.48;19.35;;;;;;;-146.18;100.00;67994.34;9967748;29;20408;-67
2021/05/01 18:08:46;;;;;;;25.08;20.95;;;;;;;-146.18;100.00;67994.34;9968889;29;20051;-66
2021/05/01 18:13:42;;;;;;;30.33;23.35;;;;;;;-146.18;100.00;67994.34;9971113;29;20396;-67
2021/05/01 18:18:38;;;;;;;27.23;20.98;;;;;;;-146.18;100.00;67994.34;9974186;29;20641;-67
2021/05/01 18:23:34;;;;;;;30.67;23.63;;;;;;;-146.18;100.00;67994.34;9974816;29;20044;-65
2021/05/01 18:28:31;;;;;;;31.90;24.00;;;;;;;-146.18;100.00;67994.34;9973456;29;20056;-66
2021/05/01 18:33:27;;;;;;;30.15;23.48;;;;;;;-146.18;100.00;67994.34;9967367;29;20143;-67
2021/05/01 18:38:23;;;;;;;32.72;25.85;;;;;;;-146.18;100.00;67994.34;9968159;29;20064;-68
2021/05/01 18:43:23;;;;;;;34.58;27.17;;;;;;;-146.18;100.00;67994.34;9961840;29;20047;-67
2021/05/01 18:48:19;;;;;;;31.20;23.10;;;;;;;-146.18;100.00;67994.34;9977005;29;20422;-67
2021/05/01 18:53:15;;;;;;;33.95;25.50;;;;;;;-146.18;100.00;67994.34;9956966;29;20459;-68
2021/05/01 18:58:11;;;;;;;32.50;23.42;;;;;;;-146.18;100.00;67994.34;9980871;29;20059;-66
2021/05/01 19:03:09;;;;;;;32.85;24.17;;;;;;;-146.18;100.00;67994.34;9969990;29;20052;-65
2021/05/01 19:08:05;;;;;;;35.35;26.30;;;;;;;-146.18;100.00;67994.34;9964535;29;20083;-68
2021/05/01 19:13:07;;;;;;;33.65;25.25;;;;;;;-146.18;100.00;67994.34;9972680;29;20079;-65
2021/05/01 19:18:04;;;;;;;35.00;25.38;;;;;;;-146.18;100.00;67994.34;9980802;29;20048;-66
2021/05/01 19:23:00;;;;;;;30.65;22.80;;;;;;;-146.18;100.00;67994.34;9971595;29;20113;-65
2021/05/01 19:27:56;;;;;;;34.63;25.38;;;;;;;-146.18;100.00;67994.34;9982620;29;20131;-66
2021/05/01 19:32:53;;;;;;;38.25;27.67;;;;;;;-146.18;100.00;67994.34;9981333;29;20621;-66
2021/05/01 19:37:49;;;;;;;35.10;26.33;;;;;;;-146.18;100.00;67994.34;9984764;29;20044;-66
2021/05/01 19:42:53;;;;;;;38.60;28.08;;;;;;;-146.18;100.00;67994.34;9984784;29;20052;-66
2021/05/01 19:47:49;;;;;;;33.63;24.10;;;;;;;-146.18;100.00;67994.34;9983812;29;20407;-65
2021/05/01 19:52:46;;;;;;;34.35;25.75;;;;;;;-146.18;100.00;67994.34;9978550;29;20055;-68
2021/05/01 19:57:43;;;;;;;33.92;25.55;;;;;;;-146.18;100.00;67994.34;9982815;29;20084;-66
2021/05/01 20:02:45;;;;;;;35.25;25.67;;;;;;;-146.18;100.00;67994.34;9963653;29;20054;-68
2021/05/01 20:07:45;;;;;;;38.40;27.77;;;;;;;-146.18;100.00;67994.34;9983085;29;20745;-65
2021/05/01 20:12:42;;;;;;;33.55;26.17;;;;;;;-146.18;100.00;67994.34;9981068;29;20052;-67
2021/05/01 20:17:39;;;;;;;36.40;28.17;;;;;;;-146.18;100.00;67994.34;9979147;29;20060;-67
2021/05/01 20:22:38;;;;;;;40.47;30.50;;;;;;;-146.18;100.00;67994.34;9981913;29;20094;-67
2021/05/01 20:27:34;;;;;;;47.60;33.65;;;;;;;-146.18;100.00;67994.34;9987340;29;20048;-65
2021/05/01 20:32:30;;;;;;;45.83;33.78;;;;;;;-146.18;100.00;67994.34;9988851;29;20159;-65
2021/05/01 20:37:29;;;;;;;42.40;31.92;;;;;;;-146.18;100.00;67994.34;9976879;29;20132;-68
2021/05/01 20:42:25;;;;;;;43.28;31.52;;;;;;;-146.18;100.00;67994.34;9980279;29;20071;-67
2021/05/01 20:47:24;;;;;;;43.35;30.75;;;;;;;-146.18;100.00;67994.34;9976541;29;20048;-68
2021/05/01 20:52:23;;;;;;;43.15;31.83;;;;;;;-146.18;100.00;67994.34;9984058;29;20084;-65
2021/05/01 20:57:18;;;;;;;47.22;33.53;;;;;;;-146.18;100.00;67994.34;9980086;29;20449;-68
2021/05/01 21:02:15;;;;;;;40.33;29.55;;;;;;;-146.18;100.00;67994.34;9976891;29;20048;-66
2021/05/01 21:07:11;;;;;;;39.70;29.15;;;;;;;-146.18;100.00;67994.34;9978211;29;20572;-67
2021/05/01 21:12:08;;;;;;;37.25;27.35;;;;;;;-146.18;100.00;67994.34;9977393;29;20064;-68
2021/05/01 21:17:04;;;;;;;35.42;25.27;;;;;;;-146.18;100.00;67994.34;9973002;29;20048;-69
2021/05/01 21:22:01;;;;;;;38.67;28.17;;;;;;;-146.18;100.00;67994.34;9970642;29;20059;-68
2021/05/01 21:26:58;;;;;;;38.95;28.98;;;;;;;-146.18;100.00;67994.34;9974655;29;20063;-70
2021/05/01 21:31:54;;;;;;;36.05;27.00;;;;;;;-146.18;100.00;67994.34;9983205;29;20147;-70
2021/05/01 21:36:53;;;;;;;38.80;28.85;;;;;;;-146.18;100.00;67994.34;9975450;29;20040;-70
2021/05/01 21:41:49;;;;;;;39.20;28.50;;;;;;;-146.18;100.00;67994.34;9979933;29;20048;-66
2021/05/01 21:46:45;;;;;;;39.70;28.88;;;;;;;-146.18;100.00;67994.34;9983209;29;20134;-69
2021/05/01 21:51:42;;;;;;;45.13;32.72;;;;;;;-146.18;100.00;67994.34;9988739;29;20101;-68
2021/05/01 21:56:38;;;;;;;43.80;30.33;;;;;;;-146.18;100.00;67994.34;9977531;29;20107;-70
2021/05/01 22:01:34;;;;;;;42.90;30.05;;;;;;;-146.18;100.00;67994.34;9984881;29;20670;-66
2021/05/01 22:06:30;;;;;;;43.83;30.40;;;;;;;-146.18;100.00;67994.34;9981596;29;20049;-72
2021/05/01 22:11:29;;;;;;;42.00;29.60;;;;;;;-146.18;100.00;67994.34;9981091;29;20147;-73
2021/05/01 22:16:26;;;;;;;44.88;30.60;;;;;;;-146.18;100.00;67994.34;9985825;29;20056;-71
2021/05/01 22:21:26;;;;;;;42.83;29.92;;;;;;;-146.18;100.00;67994.34;9985929;29;20166;-72
2021/05/01 22:26:24;;;;;;;42.58;30.13;;;;;;;-146.18;100.00;67994.34;9970169;29;20055;-72